sensor_id;sensor_type;location;lat;lon;timestamp;temperature;humidity
18502;DHT22;68437;52.236;5.710;2023-07-31T00:01:20;14.80;99.90
18502;DHT22;68437;52.236;5.710;2023-07-31T00:03:47;14.90;99.90
18502;DHT22;68437;52.236;5.710;2023-07-31T00:06:14;14.90;99.90
18502;DHT22;68437;52.236;5.710;2023-07-31T00:08:41;14.90;99.90
18502;DHT22;68437;52.236;5.710;2023-07-31T00:11:08;14.90;99.90
18502;DHT22;68437;52.236;5.710;2023-07-31T00:13:34;14.90;99.90
18502;DHT22;68437;52.236;5.710;2023-07-31T00:16:01;14.90;99.90
18502;DHT22;68437;52.236;5.710;2023-07-31T00:18:30;14.90;99.90
18502;DHT22;68437;52.236;5.710;2023-07-31T00:20:56;15.00;99.90
18502;DHT22;68437;52.236;5.710;2023-07-31T00:23:23;15.00;99.90
18502;DHT22;68437;52.236;5.710;2023-07-31T00:25:50;15.00;99.90
18502;DHT22;68437;52.236;5.710;2023-07-31T00:28:17;15.00;99.90
18502;DHT22;68437;52.236;5.710;2023-07-31T00:30:44;15.00;99.90
18502;DHT22;68437;52.236;5.710;2023-07-31T00:33:10;15.00;99.90
18502;DHT22;68437;52.236;5.710;2023-07-31T00:35:39;15.10;99.90
18502;DHT22;68437;52.236;5.710;2023-07-31T00:38:05;15.10;99.90
18502;DHT22;68437;52.236;5.710;2023-07-31T00:40:35;15.10;99.90
18502;DHT22;68437;52.236;5.710;2023-07-31T00:43:02;15.10;99.90
18502;DHT22;68437;52.236;5.710;2023-07-31T00:45:29;15.10;99.90
18502;DHT22;68437;52.236;5.710;2023-07-31T00:47:57;15.10;99.90
18502;DHT22;68437;52.236;5.710;2023-07-31T00:50:24;15.20;99.90
18502;DHT22;68437;52.236;5.710;2023-07-31T00:52:53;15.20;99.90
18502;DHT22;68437;52.236;5.710;2023-07-31T00:55:20;15.20;99.90
18502;DHT22;68437;52.236;5.710;2023-07-31T00:57:48;15.20;99.90
18502;DHT22;68437;52.236;5.710;2023-07-31T01:00:16;15.30;99.90
18502;DHT22;68437;52.236;5.710;2023-07-31T01:02:43;15.30;99.90
18502;DHT22;68437;52.236;5.710;2023-07-31T01:05:10;15.30;99.90
18502;DHT22;68437;52.236;5.710;2023-07-31T01:07:44;15.30;99.90
18502;DHT22;68437;52.236;5.710;2023-07-31T01:10:20;15.30;99.90
18502;DHT22;68437;52.236;5.710;2023-07-31T01:12:48;15.40;99.90
18502;DHT22;68437;52.236;5.710;2023-07-31T01:15:14;15.40;99.90
18502;DHT22;68437;52.236;5.710;2023-07-31T01:17:43;15.40;99.90
18502;DHT22;68437;52.236;5.710;2023-07-31T01:20:12;15.40;99.90
18502;DHT22;68437;52.236;5.710;2023-07-31T01:22:54;15.40;99.90
18502;DHT22;68437;52.236;5.710;2023-07-31T01:28:23;15.50;99.90
18502;DHT22;68437;52.236;5.710;2023-07-31T01:30:52;15.40;99.90
18502;DHT22;68437;52.236;5.710;2023-07-31T01:33:22;15.50;99.90
18502;DHT22;68437;52.236;5.710;2023-07-31T01:35:49;15.60;99.90
18502;DHT22;68437;52.236;5.710;2023-07-31T01:38:20;15.60;99.90
18502;DHT22;68437;52.236;5.710;2023-07-31T01:40:51;15.60;99.90
18502;DHT22;68437;52.236;5.710;2023-07-31T01:43:20;15.60;99.90
18502;DHT22;68437;52.236;5.710;2023-07-31T01:45:47;15.60;99.90
18502;DHT22;68437;52.236;5.710;2023-07-31T01:48:14;15.70;99.90
18502;DHT22;68437;52.236;5.710;2023-07-31T01:50:40;15.70;99.90
18502;DHT22;68437;52.236;5.710;2023-07-31T01:53:07;15.70;99.90
18502;DHT22;68437;52.236;5.710;2023-07-31T01:55:34;15.70;99.90
18502;DHT22;68437;52.236;5.710;2023-07-31T01:58:01;15.70;99.90
18502;DHT22;68437;52.236;5.710;2023-07-31T02:00:29;15.70;99.90
18502;DHT22;68437;52.236;5.710;2023-07-31T02:02:56;15.70;99.90
18502;DHT22;68437;52.236;5.710;2023-07-31T02:05:23;15.70;99.90
18502;DHT22;68437;52.236;5.710;2023-07-31T02:07:50;15.70;99.90
18502;DHT22;68437;52.236;5.710;2023-07-31T02:10:17;15.80;99.90
18502;DHT22;68437;52.236;5.710;2023-07-31T02:12:44;15.70;99.90
18502;DHT22;68437;52.236;5.710;2023-07-31T02:15:11;15.70;99.90
18502;DHT22;68437;52.236;5.710;2023-07-31T02:17:39;15.70;99.90
18502;DHT22;68437;52.236;5.710;2023-07-31T02:20:07;15.70;99.90
18502;DHT22;68437;52.236;5.710;2023-07-31T02:22:34;15.70;99.90
18502;DHT22;68437;52.236;5.710;2023-07-31T02:25:00;15.70;99.90
18502;DHT22;68437;52.236;5.710;2023-07-31T02:27:27;15.70;99.90
18502;DHT22;68437;52.236;5.710;2023-07-31T02:29:54;15.80;99.90
18502;DHT22;68437;52.236;5.710;2023-07-31T02:32:21;15.80;99.90
18502;DHT22;68437;52.236;5.710;2023-07-31T02:34:49;15.80;99.90
18502;DHT22;68437;52.236;5.710;2023-07-31T02:37:16;15.80;99.90
18502;DHT22;68437;52.236;5.710;2023-07-31T02:39:43;15.80;99.90
18502;DHT22;68437;52.236;5.710;2023-07-31T02:42:10;15.90;99.90
18502;DHT22;68437;52.236;5.710;2023-07-31T02:44:37;15.90;99.90
18502;DHT22;68437;52.236;5.710;2023-07-31T02:47:04;15.90;99.90
18502;DHT22;68437;52.236;5.710;2023-07-31T02:49:31;15.90;99.90
18502;DHT22;68437;52.236;5.710;2023-07-31T02:51:59;15.90;99.90
18502;DHT22;68437;52.236;5.710;2023-07-31T02:54:26;15.90;99.90
18502;DHT22;68437;52.236;5.710;2023-07-31T02:56:53;15.90;99.90
18502;DHT22;68437;52.236;5.710;2023-07-31T02:59:20;15.90;99.90
18502;DHT22;68437;52.236;5.710;2023-07-31T03:01:47;16.00;99.90
18502;DHT22;68437;52.236;5.710;2023-07-31T03:04:14;16.00;99.90
18502;DHT22;68437;52.236;5.710;2023-07-31T03:06:41;16.00;99.90
18502;DHT22;68437;52.236;5.710;2023-07-31T03:09:09;16.00;99.90
18502;DHT22;68437;52.236;5.710;2023-07-31T03:11:37;16.00;99.90
18502;DHT22;68437;52.236;5.710;2023-07-31T03:14:05;16.00;99.90
18502;DHT22;68437;52.236;5.710;2023-07-31T03:16:32;16.00;99.90
18502;DHT22;68437;52.236;5.710;2023-07-31T03:18:58;16.00;99.90
18502;DHT22;68437;52.236;5.710;2023-07-31T03:21:25;16.00;99.90
18502;DHT22;68437;52.236;5.710;2023-07-31T03:23:52;16.00;99.90
18502;DHT22;68437;52.236;5.710;2023-07-31T03:26:20;16.00;99.90
18502;DHT22;68437;52.236;5.710;2023-07-31T03:28:47;16.00;99.90
18502;DHT22;68437;52.236;5.710;2023-07-31T03:31:15;16.00;99.90
18502;DHT22;68437;52.236;5.710;2023-07-31T03:33:42;16.00;99.90
18502;DHT22;68437;52.236;5.710;2023-07-31T03:36:09;16.00;99.90
18502;DHT22;68437;52.236;5.710;2023-07-31T03:38:35;16.00;99.90
18502;DHT22;68437;52.236;5.710;2023-07-31T03:41:02;16.00;99.90
18502;DHT22;68437;52.236;5.710;2023-07-31T03:43:33;16.00;99.90
18502;DHT22;68437;52.236;5.710;2023-07-31T03:46:00;16.00;99.90
18502;DHT22;68437;52.236;5.710;2023-07-31T03:48:27;16.00;99.90
18502;DHT22;68437;52.236;5.710;2023-07-31T03:50:55;16.00;99.90
18502;DHT22;68437;52.236;5.710;2023-07-31T03:53:22;16.00;99.90
18502;DHT22;68437;52.236;5.710;2023-07-31T03:55:49;16.00;99.90
18502;DHT22;68437;52.236;5.710;2023-07-31T03:58:16;15.90;99.90
18502;DHT22;68437;52.236;5.710;2023-07-31T04:00:45;15.90;99.90
18502;DHT22;68437;52.236;5.710;2023-07-31T04:03:11;16.00;99.90
18502;DHT22;68437;52.236;5.710;2023-07-31T04:05:39;16.00;99.90
18502;DHT22;68437;52.236;5.710;2023-07-31T04:08:06;16.00;99.90
18502;DHT22;68437;52.236;5.710;2023-07-31T04:10:33;15.90;99.90
18502;DHT22;68437;52.236;5.710;2023-07-31T04:13:00;15.90;99.90
18502;DHT22;68437;52.236;5.710;2023-07-31T04:15:27;15.90;99.90
18502;DHT22;68437;52.236;5.710;2023-07-31T04:17:55;15.80;99.90
18502;DHT22;68437;52.236;5.710;2023-07-31T04:20:22;15.80;99.90
18502;DHT22;68437;52.236;5.710;2023-07-31T04:22:49;15.80;99.90
18502;DHT22;68437;52.236;5.710;2023-07-31T04:25:16;15.80;99.90
18502;DHT22;68437;52.236;5.710;2023-07-31T04:27:43;15.80;99.90
18502;DHT22;68437;52.236;5.710;2023-07-31T04:30:10;15.90;99.90
18502;DHT22;68437;52.236;5.710;2023-07-31T04:32:37;15.80;99.90
18502;DHT22;68437;52.236;5.710;2023-07-31T04:35:05;15.70;99.90
18502;DHT22;68437;52.236;5.710;2023-07-31T04:37:32;15.80;99.90
18502;DHT22;68437;52.236;5.710;2023-07-31T04:39:59;15.80;99.90
18502;DHT22;68437;52.236;5.710;2023-07-31T04:42:26;15.80;99.90
18502;DHT22;68437;52.236;5.710;2023-07-31T04:44:53;15.80;99.90
18502;DHT22;68437;52.236;5.710;2023-07-31T04:47:20;15.80;99.90
18502;DHT22;68437;52.236;5.710;2023-07-31T04:49:47;15.70;99.90
18502;DHT22;68437;52.236;5.710;2023-07-31T04:52:15;15.70;99.90
18502;DHT22;68437;52.236;5.710;2023-07-31T04:54:42;15.80;99.90
18502;DHT22;68437;52.236;5.710;2023-07-31T04:57:09;15.70;99.90
18502;DHT22;68437;52.236;5.710;2023-07-31T04:59:35;15.70;99.90
18502;DHT22;68437;52.236;5.710;2023-07-31T05:02:03;15.70;99.90
18502;DHT22;68437;52.236;5.710;2023-07-31T05:04:30;15.70;99.90
18502;DHT22;68437;52.236;5.710;2023-07-31T05:06:56;15.70;99.90
18502;DHT22;68437;52.236;5.710;2023-07-31T05:09:25;15.70;99.90
18502;DHT22;68437;52.236;5.710;2023-07-31T05:11:52;15.70;99.90
18502;DHT22;68437;52.236;5.710;2023-07-31T05:14:18;15.70;99.90
18502;DHT22;68437;52.236;5.710;2023-07-31T05:16:45;15.70;99.90
18502;DHT22;68437;52.236;5.710;2023-07-31T05:19:12;15.70;99.90
18502;DHT22;68437;52.236;5.710;2023-07-31T05:21:39;15.70;99.90
18502;DHT22;68437;52.236;5.710;2023-07-31T05:24:06;15.80;99.90
18502;DHT22;68437;52.236;5.710;2023-07-31T05:26:35;15.70;99.90
18502;DHT22;68437;52.236;5.710;2023-07-31T05:29:02;15.70;99.90
18502;DHT22;68437;52.236;5.710;2023-07-31T05:31:29;15.70;99.90
18502;DHT22;68437;52.236;5.710;2023-07-31T05:33:57;15.60;99.90
18502;DHT22;68437;52.236;5.710;2023-07-31T05:36:24;15.60;99.90
18502;DHT22;68437;52.236;5.710;2023-07-31T05:38:51;15.60;99.90
18502;DHT22;68437;52.236;5.710;2023-07-31T05:41:18;15.60;99.90
18502;DHT22;68437;52.236;5.710;2023-07-31T05:43:46;15.60;99.90
18502;DHT22;68437;52.236;5.710;2023-07-31T05:46:13;15.60;99.90
18502;DHT22;68437;52.236;5.710;2023-07-31T05:48:40;15.60;99.90
18502;DHT22;68437;52.236;5.710;2023-07-31T05:51:07;15.60;99.90
18502;DHT22;68437;52.236;5.710;2023-07-31T05:53:34;15.50;99.90
18502;DHT22;68437;52.236;5.710;2023-07-31T05:56:01;15.60;99.90
18502;DHT22;68437;52.236;5.710;2023-07-31T05:58:28;15.60;99.90
18502;DHT22;68437;52.236;5.710;2023-07-31T06:00:56;15.60;99.90
18502;DHT22;68437;52.236;5.710;2023-07-31T06:03:23;15.60;99.90
18502;DHT22;68437;52.236;5.710;2023-07-31T06:05:50;15.60;99.90
18502;DHT22;68437;52.236;5.710;2023-07-31T06:08:17;15.60;99.90
18502;DHT22;68437;52.236;5.710;2023-07-31T06:10:44;15.60;99.90
18502;DHT22;68437;52.236;5.710;2023-07-31T06:13:10;15.60;99.90
18502;DHT22;68437;52.236;5.710;2023-07-31T06:15:37;15.60;99.90
18502;DHT22;68437;52.236;5.710;2023-07-31T06:18:06;15.60;99.90
18502;DHT22;68437;52.236;5.710;2023-07-31T06:20:33;15.60;99.90
18502;DHT22;68437;52.236;5.710;2023-07-31T06:23:00;15.60;99.90
18502;DHT22;68437;52.236;5.710;2023-07-31T06:25:27;15.60;99.90
18502;DHT22;68437;52.236;5.710;2023-07-31T06:27:54;15.60;99.90
18502;DHT22;68437;52.236;5.710;2023-07-31T06:30:21;15.60;99.90
18502;DHT22;68437;52.236;5.710;2023-07-31T06:32:48;15.60;99.90
18502;DHT22;68437;52.236;5.710;2023-07-31T06:35:16;15.60;99.90
18502;DHT22;68437;52.236;5.710;2023-07-31T06:37:43;15.70;99.90
18502;DHT22;68437;52.236;5.710;2023-07-31T06:40:11;15.70;99.90
18502;DHT22;68437;52.236;5.710;2023-07-31T06:42:37;15.70;99.90
18502;DHT22;68437;52.236;5.710;2023-07-31T06:45:05;15.80;99.90
18502;DHT22;68437;52.236;5.710;2023-07-31T06:47:33;15.70;99.90
18502;DHT22;68437;52.236;5.710;2023-07-31T06:50:00;15.80;99.90
18502;DHT22;68437;52.236;5.710;2023-07-31T06:52:28;15.80;99.90
18502;DHT22;68437;52.236;5.710;2023-07-31T06:55:02;15.80;99.90
18502;DHT22;68437;52.236;5.710;2023-07-31T06:57:29;15.80;99.90
18502;DHT22;68437;52.236;5.710;2023-07-31T06:59:56;15.80;99.90
18502;DHT22;68437;52.236;5.710;2023-07-31T07:02:23;15.80;99.90
18502;DHT22;68437;52.236;5.710;2023-07-31T07:04:50;15.90;99.90
18502;DHT22;68437;52.236;5.710;2023-07-31T07:07:17;15.90;99.90
18502;DHT22;68437;52.236;5.710;2023-07-31T07:09:46;15.90;99.90
18502;DHT22;68437;52.236;5.710;2023-07-31T07:12:12;15.90;99.90
18502;DHT22;68437;52.236;5.710;2023-07-31T07:14:39;15.90;99.90
18502;DHT22;68437;52.236;5.710;2023-07-31T07:17:06;15.90;99.90
18502;DHT22;68437;52.236;5.710;2023-07-31T07:19:33;16.00;99.90
18502;DHT22;68437;52.236;5.710;2023-07-31T07:22:01;16.00;99.90
18502;DHT22;68437;52.236;5.710;2023-07-31T07:24:28;16.10;99.90
18502;DHT22;68437;52.236;5.710;2023-07-31T07:26:56;16.10;99.90
18502;DHT22;68437;52.236;5.710;2023-07-31T07:29:23;16.10;99.90
18502;DHT22;68437;52.236;5.710;2023-07-31T07:31:50;16.10;99.90
18502;DHT22;68437;52.236;5.710;2023-07-31T07:34:17;16.10;99.90
18502;DHT22;68437;52.236;5.710;2023-07-31T07:36:44;16.20;99.90
18502;DHT22;68437;52.236;5.710;2023-07-31T07:39:11;16.20;99.90
18502;DHT22;68437;52.236;5.710;2023-07-31T07:41:38;16.20;99.90
18502;DHT22;68437;52.236;5.710;2023-07-31T07:44:07;16.10;99.90
18502;DHT22;68437;52.236;5.710;2023-07-31T07:46:34;16.20;99.90
18502;DHT22;68437;52.236;5.710;2023-07-31T07:49:01;16.20;99.90
18502;DHT22;68437;52.236;5.710;2023-07-31T07:51:27;16.20;99.90
18502;DHT22;68437;52.236;5.710;2023-07-31T07:53:56;16.20;99.90
18502;DHT22;68437;52.236;5.710;2023-07-31T07:56:23;16.30;99.90
18502;DHT22;68437;52.236;5.710;2023-07-31T07:58:50;16.30;99.90
18502;DHT22;68437;52.236;5.710;2023-07-31T08:01:18;16.30;99.90
18502;DHT22;68437;52.236;5.710;2023-07-31T08:03:45;16.30;99.90
18502;DHT22;68437;52.236;5.710;2023-07-31T08:06:12;16.40;99.90
18502;DHT22;68437;52.236;5.710;2023-07-31T08:08:39;16.30;99.90
18502;DHT22;68437;52.236;5.710;2023-07-31T08:11:06;16.40;99.90
18502;DHT22;68437;52.236;5.710;2023-07-31T08:13:33;16.40;99.90
18502;DHT22;68437;52.236;5.710;2023-07-31T08:16:02;16.40;99.90
18502;DHT22;68437;52.236;5.710;2023-07-31T08:18:31;16.40;99.90
18502;DHT22;68437;52.236;5.710;2023-07-31T08:20:58;16.50;99.90
18502;DHT22;68437;52.236;5.710;2023-07-31T08:23:25;16.50;99.90
18502;DHT22;68437;52.236;5.710;2023-07-31T08:25:52;16.50;99.90
18502;DHT22;68437;52.236;5.710;2023-07-31T08:28:19;16.60;99.90
18502;DHT22;68437;52.236;5.710;2023-07-31T08:30:46;16.60;99.90
18502;DHT22;68437;52.236;5.710;2023-07-31T08:33:13;16.60;99.90
18502;DHT22;68437;52.236;5.710;2023-07-31T08:35:41;16.60;99.90
18502;DHT22;68437;52.236;5.710;2023-07-31T08:38:08;16.60;99.90
18502;DHT22;68437;52.236;5.710;2023-07-31T08:40:36;16.70;99.90
18502;DHT22;68437;52.236;5.710;2023-07-31T08:43:04;16.70;99.90
18502;DHT22;68437;52.236;5.710;2023-07-31T08:45:31;16.70;99.90
18502;DHT22;68437;52.236;5.710;2023-07-31T08:47:59;16.70;99.90
18502;DHT22;68437;52.236;5.710;2023-07-31T08:50:26;16.70;99.90
18502;DHT22;68437;52.236;5.710;2023-07-31T08:52:54;16.80;99.90
18502;DHT22;68437;52.236;5.710;2023-07-31T08:55:21;16.80;99.90
18502;DHT22;68437;52.236;5.710;2023-07-31T08:57:51;16.80;99.90
18502;DHT22;68437;52.236;5.710;2023-07-31T09:00:20;16.90;99.90
18502;DHT22;68437;52.236;5.710;2023-07-31T09:02:54;16.90;99.90
18502;DHT22;68437;52.236;5.710;2023-07-31T09:05:23;16.90;99.90
18502;DHT22;68437;52.236;5.710;2023-07-31T09:07:50;17.00;99.90
18502;DHT22;68437;52.236;5.710;2023-07-31T09:10:19;17.00;99.90
18502;DHT22;68437;52.236;5.710;2023-07-31T09:12:46;17.00;99.90
18502;DHT22;68437;52.236;5.710;2023-07-31T09:15:14;17.00;99.90
18502;DHT22;68437;52.236;5.710;2023-07-31T09:17:42;17.00;99.90
18502;DHT22;68437;52.236;5.710;2023-07-31T09:20:15;17.00;99.90
18502;DHT22;68437;52.236;5.710;2023-07-31T09:22:43;17.00;99.90
18502;DHT22;68437;52.236;5.710;2023-07-31T09:25:17;17.00;99.90
18502;DHT22;68437;52.236;5.710;2023-07-31T09:27:49;17.00;99.90
18502;DHT22;68437;52.236;5.710;2023-07-31T09:30:17;17.10;99.90
18502;DHT22;68437;52.236;5.710;2023-07-31T09:32:45;17.10;99.90
18502;DHT22;68437;52.236;5.710;2023-07-31T09:35:20;17.10;99.90
18502;DHT22;68437;52.236;5.710;2023-07-31T09:37:51;17.10;99.90
18502;DHT22;68437;52.236;5.710;2023-07-31T09:40:31;17.10;99.90
18502;DHT22;68437;52.236;5.710;2023-07-31T09:43:01;17.10;99.90
18502;DHT22;68437;52.236;5.710;2023-07-31T09:45:28;17.20;99.90
18502;DHT22;68437;52.236;5.710;2023-07-31T09:47:55;17.20;99.90
18502;DHT22;68437;52.236;5.710;2023-07-31T09:50:24;17.20;99.90
18502;DHT22;68437;52.236;5.710;2023-07-31T09:52:51;17.20;99.90
18502;DHT22;68437;52.236;5.710;2023-07-31T09:55:19;17.30;99.90
18502;DHT22;68437;52.236;5.710;2023-07-31T09:57:47;17.30;99.90
18502;DHT22;68437;52.236;5.710;2023-07-31T10:00:17;17.30;99.90
18502;DHT22;68437;52.236;5.710;2023-07-31T10:02:46;17.30;99.90
18502;DHT22;68437;52.236;5.710;2023-07-31T10:05:14;17.30;99.90
18502;DHT22;68437;52.236;5.710;2023-07-31T10:07:43;17.30;99.90
18502;DHT22;68437;52.236;5.710;2023-07-31T10:10:13;17.40;99.90
18502;DHT22;68437;52.236;5.710;2023-07-31T10:12:42;17.50;99.90
18502;DHT22;68437;52.236;5.710;2023-07-31T10:15:10;17.50;99.90
18502;DHT22;68437;52.236;5.710;2023-07-31T10:17:39;17.50;99.90
18502;DHT22;68437;52.236;5.710;2023-07-31T10:20:07;17.60;99.90
18502;DHT22;68437;52.236;5.710;2023-07-31T10:22:35;17.60;99.90
18502;DHT22;68437;52.236;5.710;2023-07-31T10:25:02;17.70;99.90
18502;DHT22;68437;52.236;5.710;2023-07-31T10:27:29;17.70;99.90
18502;DHT22;68437;52.236;5.710;2023-07-31T10:29:57;17.70;99.90
18502;DHT22;68437;52.236;5.710;2023-07-31T10:32:25;17.60;99.90
18502;DHT22;68437;52.236;5.710;2023-07-31T10:34:54;17.70;99.90
18502;DHT22;68437;52.236;5.710;2023-07-31T10:37:23;17.70;99.90
18502;DHT22;68437;52.236;5.710;2023-07-31T10:40:02;17.70;99.90
18502;DHT22;68437;52.236;5.710;2023-07-31T10:42:32;17.70;99.90
18502;DHT22;68437;52.236;5.710;2023-07-31T10:45:01;17.70;99.90
18502;DHT22;68437;52.236;5.710;2023-07-31T10:47:28;17.70;99.90
18502;DHT22;68437;52.236;5.710;2023-07-31T10:50:13;17.70;99.90
18502;DHT22;68437;52.236;5.710;2023-07-31T10:52:40;17.70;99.90
18502;DHT22;68437;52.236;5.710;2023-07-31T10:55:14;17.80;99.90
18502;DHT22;68437;52.236;5.710;2023-07-31T10:57:44;17.90;99.90
18502;DHT22;68437;52.236;5.710;2023-07-31T11:00:20;17.90;99.90
18502;DHT22;68437;52.236;5.710;2023-07-31T11:03:00;17.90;99.90
18502;DHT22;68437;52.236;5.710;2023-07-31T11:05:46;18.00;99.90
18502;DHT22;68437;52.236;5.710;2023-07-31T11:08:14;18.00;99.90
18502;DHT22;68437;52.236;5.710;2023-07-31T11:10:43;18.00;99.90
18502;DHT22;68437;52.236;5.710;2023-07-31T11:13:10;18.00;99.90
18502;DHT22;68437;52.236;5.710;2023-07-31T11:15:36;18.00;99.90
18502;DHT22;68437;52.236;5.710;2023-07-31T11:18:04;18.00;99.90
18502;DHT22;68437;52.236;5.710;2023-07-31T11:20:32;18.00;99.90
18502;DHT22;68437;52.236;5.710;2023-07-31T11:23:02;18.00;99.90
18502;DHT22;68437;52.236;5.710;2023-07-31T11:25:30;18.00;99.90
18502;DHT22;68437;52.236;5.710;2023-07-31T11:27:57;18.10;99.90
18502;DHT22;68437;52.236;5.710;2023-07-31T11:30:24;18.10;99.90
18502;DHT22;68437;52.236;5.710;2023-07-31T11:32:51;18.00;99.90
18502;DHT22;68437;52.236;5.710;2023-07-31T11:35:18;18.10;99.90
18502;DHT22;68437;52.236;5.710;2023-07-31T11:37:45;18.10;99.90
18502;DHT22;68437;52.236;5.710;2023-07-31T11:40:13;18.20;99.90
18502;DHT22;68437;52.236;5.710;2023-07-31T11:42:40;18.30;99.90
18502;DHT22;68437;52.236;5.710;2023-07-31T11:45:09;18.30;99.90
18502;DHT22;68437;52.236;5.710;2023-07-31T11:47:37;18.40;99.90
18502;DHT22;68437;52.236;5.710;2023-07-31T11:50:05;18.50;99.90
18502;DHT22;68437;52.236;5.710;2023-07-31T11:52:36;18.40;99.90
18502;DHT22;68437;52.236;5.710;2023-07-31T11:55:05;18.40;99.90
18502;DHT22;68437;52.236;5.710;2023-07-31T11:57:37;18.40;99.90
18502;DHT22;68437;52.236;5.710;2023-07-31T12:00:07;18.40;99.90
18502;DHT22;68437;52.236;5.710;2023-07-31T12:02:35;18.40;99.90
18502;DHT22;68437;52.236;5.710;2023-07-31T12:05:03;18.40;99.90
18502;DHT22;68437;52.236;5.710;2023-07-31T12:07:43;18.40;99.90
18502;DHT22;68437;52.236;5.710;2023-07-31T12:10:10;18.30;99.90
18502;DHT22;68437;52.236;5.710;2023-07-31T12:12:39;18.30;99.90
18502;DHT22;68437;52.236;5.710;2023-07-31T12:15:14;18.30;99.90
18502;DHT22;68437;52.236;5.710;2023-07-31T12:17:41;18.30;99.90
18502;DHT22;68437;52.236;5.710;2023-07-31T12:20:10;18.20;99.90
18502;DHT22;68437;52.236;5.710;2023-07-31T12:22:37;18.10;99.90
18502;DHT22;68437;52.236;5.710;2023-07-31T12:25:04;18.00;99.90
18502;DHT22;68437;52.236;5.710;2023-07-31T12:27:33;18.00;99.90
18502;DHT22;68437;52.236;5.710;2023-07-31T12:30:02;18.00;99.90
18502;DHT22;68437;52.236;5.710;2023-07-31T12:32:30;18.00;99.90
18502;DHT22;68437;52.236;5.710;2023-07-31T12:34:59;17.90;99.90
18502;DHT22;68437;52.236;5.710;2023-07-31T12:37:28;18.00;99.90
18502;DHT22;68437;52.236;5.710;2023-07-31T12:39:55;18.00;99.90
18502;DHT22;68437;52.236;5.710;2023-07-31T12:42:26;18.00;99.90
18502;DHT22;68437;52.236;5.710;2023-07-31T12:44:53;18.10;99.90
18502;DHT22;68437;52.236;5.710;2023-07-31T12:47:21;18.10;99.90
18502;DHT22;68437;52.236;5.710;2023-07-31T12:49:48;18.10;99.90
18502;DHT22;68437;52.236;5.710;2023-07-31T12:52:15;18.10;99.90
18502;DHT22;68437;52.236;5.710;2023-07-31T12:54:42;18.10;99.90
18502;DHT22;68437;52.236;5.710;2023-07-31T12:57:08;18.10;99.90
18502;DHT22;68437;52.236;5.710;2023-07-31T12:59:35;18.10;99.90
18502;DHT22;68437;52.236;5.710;2023-07-31T13:02:02;18.10;99.90
18502;DHT22;68437;52.236;5.710;2023-07-31T13:04:30;18.10;99.90
18502;DHT22;68437;52.236;5.710;2023-07-31T13:06:57;18.10;99.90
18502;DHT22;68437;52.236;5.710;2023-07-31T13:09:24;18.10;99.90
18502;DHT22;68437;52.236;5.710;2023-07-31T13:11:51;18.10;99.90
18502;DHT22;68437;52.236;5.710;2023-07-31T13:14:18;18.10;99.90
18502;DHT22;68437;52.236;5.710;2023-07-31T13:16:45;18.10;99.90
18502;DHT22;68437;52.236;5.710;2023-07-31T13:19:12;18.10;99.90
18502;DHT22;68437;52.236;5.710;2023-07-31T13:21:40;18.20;99.90
18502;DHT22;68437;52.236;5.710;2023-07-31T13:24:07;18.30;99.90
18502;DHT22;68437;52.236;5.710;2023-07-31T13:26:34;18.30;99.90
18502;DHT22;68437;52.236;5.710;2023-07-31T13:29:01;18.30;99.90
18502;DHT22;68437;52.236;5.710;2023-07-31T13:31:28;18.30;99.90
18502;DHT22;68437;52.236;5.710;2023-07-31T13:33:55;18.30;99.90
18502;DHT22;68437;52.236;5.710;2023-07-31T13:36:21;18.30;99.90
18502;DHT22;68437;52.236;5.710;2023-07-31T13:38:49;18.40;99.90
18502;DHT22;68437;52.236;5.710;2023-07-31T13:41:16;18.40;99.90
18502;DHT22;68437;52.236;5.710;2023-07-31T13:43:43;18.40;99.90
18502;DHT22;68437;52.236;5.710;2023-07-31T13:46:10;18.40;99.90
18502;DHT22;68437;52.236;5.710;2023-07-31T13:48:37;18.40;99.90
18502;DHT22;68437;52.236;5.710;2023-07-31T13:51:04;18.60;99.90
18502;DHT22;68437;52.236;5.710;2023-07-31T13:53:31;18.70;99.90
18502;DHT22;68437;52.236;5.710;2023-07-31T13:55:59;18.80;99.90
18502;DHT22;68437;52.236;5.710;2023-07-31T13:58:26;18.80;99.90
18502;DHT22;68437;52.236;5.710;2023-07-31T14:00:53;18.80;99.90
18502;DHT22;68437;52.236;5.710;2023-07-31T14:03:20;18.70;99.90
18502;DHT22;68437;52.236;5.710;2023-07-31T14:05:47;18.50;99.90
18502;DHT22;68437;52.236;5.710;2023-07-31T14:08:13;18.50;99.90
18502;DHT22;68437;52.236;5.710;2023-07-31T14:10:40;18.40;99.90
18502;DHT22;68437;52.236;5.710;2023-07-31T14:13:09;18.30;99.90
18502;DHT22;68437;52.236;5.710;2023-07-31T14:15:35;18.30;99.90
18502;DHT22;68437;52.236;5.710;2023-07-31T14:18:03;18.20;99.90
18502;DHT22;68437;52.236;5.710;2023-07-31T14:20:30;18.20;99.90
18502;DHT22;68437;52.236;5.710;2023-07-31T14:22:57;18.20;99.90
18502;DHT22;68437;52.236;5.710;2023-07-31T14:25:24;18.20;99.90
18502;DHT22;68437;52.236;5.710;2023-07-31T14:27:51;18.20;99.90
18502;DHT22;68437;52.236;5.710;2023-07-31T14:30:19;18.20;99.90
18502;DHT22;68437;52.236;5.710;2023-07-31T14:32:46;18.10;99.90
18502;DHT22;68437;52.236;5.710;2023-07-31T14:35:13;18.10;99.90
18502;DHT22;68437;52.236;5.710;2023-07-31T14:37:42;18.10;99.90
18502;DHT22;68437;52.236;5.710;2023-07-31T14:40:10;18.10;99.90
18502;DHT22;68437;52.236;5.710;2023-07-31T14:42:38;18.00;99.90
18502;DHT22;68437;52.236;5.710;2023-07-31T14:45:06;18.00;99.90
18502;DHT22;68437;52.236;5.710;2023-07-31T14:47:35;18.00;99.90
18502;DHT22;68437;52.236;5.710;2023-07-31T14:50:03;17.90;99.90
18502;DHT22;68437;52.236;5.710;2023-07-31T14:52:30;17.90;99.90
18502;DHT22;68437;52.236;5.710;2023-07-31T14:54:57;17.90;99.90
18502;DHT22;68437;52.236;5.710;2023-07-31T14:57:24;17.80;99.90
18502;DHT22;68437;52.236;5.710;2023-07-31T14:59:50;17.90;99.90
18502;DHT22;68437;52.236;5.710;2023-07-31T15:02:17;17.80;99.90
18502;DHT22;68437;52.236;5.710;2023-07-31T15:04:45;17.90;99.90
18502;DHT22;68437;52.236;5.710;2023-07-31T15:07:12;17.90;99.90
18502;DHT22;68437;52.236;5.710;2023-07-31T15:09:39;17.90;99.90
18502;DHT22;68437;52.236;5.710;2023-07-31T15:12:08;17.90;99.90
18502;DHT22;68437;52.236;5.710;2023-07-31T15:14:35;17.90;99.90
18502;DHT22;68437;52.236;5.710;2023-07-31T15:17:01;17.90;99.90
18502;DHT22;68437;52.236;5.710;2023-07-31T15:19:28;17.90;99.90
18502;DHT22;68437;52.236;5.710;2023-07-31T15:22:01;17.90;99.90
18502;DHT22;68437;52.236;5.710;2023-07-31T15:24:28;17.90;99.90
18502;DHT22;68437;52.236;5.710;2023-07-31T15:26:55;17.90;99.90
18502;DHT22;68437;52.236;5.710;2023-07-31T15:29:22;17.90;99.90
18502;DHT22;68437;52.236;5.710;2023-07-31T15:31:49;17.80;99.90
18502;DHT22;68437;52.236;5.710;2023-07-31T15:34:16;17.90;99.90
18502;DHT22;68437;52.236;5.710;2023-07-31T15:36:44;17.80;99.90